createdAt,value
2018-06-21T18:12:18.627Z,60.60
2018-06-21T18:14:47.457Z,60.91
2018-06-21T18:17:16.364Z,60.63
2018-06-21T18:19:45.161Z,60.53
2018-06-21T18:22:14.311Z,59.56
2018-06-21T18:24:43.211Z,59.53
2018-06-21T18:27:11.927Z,59.19
2018-06-21T18:29:40.689Z,59.62
2018-06-21T18:32:09.332Z,58.48
2018-06-21T18:34:38.274Z,59.04
2018-06-21T18:37:06.972Z,58.60
2018-06-21T18:39:35.711Z,58.35
2018-06-21T18:42:04.472Z,58.67
2018-06-21T18:44:33.533Z,59.11
2018-06-21T18:47:02.287Z,59.48
2018-06-21T18:49:31.568Z,58.79
2018-06-21T18:52:00.336Z,59.83
2018-06-21T18:54:29.079Z,59.57
2018-06-21T18:56:57.892Z,58.66
2018-06-21T18:59:26.692Z,58.91
2018-06-21T19:01:55.393Z,60.06
2018-06-21T19:04:24.114Z,60.62
2018-06-21T19:06:58.082Z,61.59
2018-06-21T19:09:32.038Z,61.79
2018-06-21T19:12:02.236Z,61.32
2018-06-21T19:14:31.050Z,60.76
2018-06-21T19:17:04.814Z,61.94
2018-06-21T19:19:33.667Z,61.51
2018-06-21T19:22:02.473Z,62.25
2018-06-21T19:24:31.291Z,62.59
2018-06-21T19:27:00.554Z,61.92
2018-06-21T19:29:29.292Z,61.85
2018-06-21T19:31:58.196Z,61.98
2018-06-21T19:34:26.828Z,62.38
2018-06-21T19:36:55.586Z,61.98
2018-06-21T19:39:24.320Z,61.97
2018-06-21T19:41:53.095Z,62.76
2018-06-21T19:44:21.749Z,62.14
2018-06-21T19:46:50.511Z,62.55
2018-06-21T19:49:19.490Z,62.23
2018-06-21T19:51:48.128Z,62.34
2018-06-21T19:54:17.296Z,62.82
2018-06-21T19:56:45.976Z,63.13
2018-06-21T19:59:14.664Z,63.33
2018-06-21T20:01:43.367Z,63.04
2018-06-21T20:04:12.684Z,63.57
2018-06-21T20:06:41.413Z,63.45
2018-06-21T20:09:11.325Z,63.25
2018-06-21T20:11:40.020Z,63.20
2018-06-21T20:14:08.753Z,63.25
2018-06-21T20:16:37.428Z,63.61
2018-06-21T20:19:13.087Z,63.83
2018-06-21T20:21:42.236Z,63.57
2018-06-21T20:24:11.004Z,63.54
2018-06-21T20:26:39.746Z,63.11
2018-06-21T20:29:13.630Z,63.67
2018-06-21T20:31:42.448Z,62.93
2018-06-21T20:34:11.189Z,62.91
2018-06-21T20:36:39.854Z,62.83
2018-06-21T20:39:10.105Z,62.62
2018-06-21T20:41:38.789Z,62.62
2018-06-21T20:44:07.666Z,62.87
2018-06-21T20:46:36.488Z,63.08
2018-06-21T20:49:05.160Z,63.48
2018-06-21T20:51:33.903Z,63.49
2018-06-21T20:54:02.621Z,63.38
2018-06-21T20:56:31.305Z,63.42
2018-06-21T20:58:59.963Z,64.04
2018-06-21T21:01:28.635Z,63.57
2018-06-21T21:03:57.292Z,63.91
2018-06-21T21:06:25.947Z,63.45
2018-06-21T21:08:54.595Z,63.93
2018-06-21T21:11:23.224Z,63.65
2018-06-21T21:13:51.874Z,64.16
2018-06-21T21:16:20.510Z,63.74
2018-06-21T21:18:49.209Z,64.52
2018-06-21T21:21:18.442Z,65.03
2018-06-21T21:23:47.058Z,64.42
2018-06-21T21:26:15.814Z,65.25
2018-06-21T21:28:44.534Z,64.86
2018-06-21T21:31:13.232Z,64.42
2018-06-21T21:33:41.950Z,65.17
2018-06-21T21:36:10.578Z,64.60
2018-06-21T21:38:39.263Z,65.05
2018-06-21T21:41:07.914Z,64.98
2018-06-21T21:43:36.619Z,64.50
2018-06-21T21:46:05.316Z,64.57
2018-06-21T21:48:34.019Z,64.91
2018-06-21T21:51:02.706Z,64.71
2018-06-21T21:53:31.345Z,65.20
2018-06-21T21:55:59.980Z,65.58
2018-06-21T21:58:28.676Z,65.39
2018-06-21T22:00:58.755Z,65.58
2018-06-21T22:03:27.509Z,66.08
2018-06-21T22:05:56.191Z,66.21
2018-06-21T22:08:24.808Z,66.24
2018-06-21T22:10:53.483Z,66.96
2018-06-21T22:13:22.135Z,67.32
2018-06-21T22:15:50.795Z,67.17
2018-06-21T22:18:19.479Z,67.27
2018-06-21T22:20:48.143Z,66.94
2018-06-21T22:23:16.730Z,67.76
2018-06-21T22:25:45.391Z,66.99
2018-06-21T22:28:14.526Z,68.12
2018-06-21T22:30:43.197Z,68.19
2018-06-21T22:33:11.803Z,67.88
2018-06-21T22:35:40.416Z,68.24
2018-06-21T22:38:09.078Z,68.50
2018-06-21T22:40:37.759Z,68.77
2018-06-21T22:43:06.502Z,68.57
2018-06-21T22:45:35.160Z,69.17
2018-06-21T22:48:03.840Z,69.47
2018-06-21T22:50:32.502Z,69.84
2018-06-21T22:53:01.132Z,70.01
2018-06-21T22:55:29.854Z,69.94
2018-06-21T22:57:58.630Z,70.06
2018-06-21T23:00:27.298Z,70.18
2018-06-21T23:02:55.970Z,70.65
2018-06-21T23:05:24.700Z,70.77
2018-06-21T23:07:53.348Z,70.75
2018-06-21T23:10:21.959Z,71.24
2018-06-21T23:12:50.633Z,71.16
2018-06-21T23:15:19.287Z,72.02
2018-06-21T23:17:47.965Z,71.54
2018-06-21T23:20:16.576Z,71.61
2018-06-21T23:22:45.219Z,72.29
2018-06-21T23:25:13.871Z,72.40
2018-06-21T23:27:42.594Z,71.64
2018-06-21T23:30:11.318Z,71.43
2018-06-21T23:32:39.990Z,72.25
2018-06-21T23:35:08.680Z,72.68
2018-06-21T23:37:37.326Z,72.33
2018-06-21T23:40:06.254Z,72.03
2018-06-21T23:42:34.912Z,72.39
2018-06-21T23:45:03.591Z,72.37
2018-06-21T23:47:32.291Z,72.42
2018-06-21T23:50:00.978Z,72.46
2018-06-21T23:52:29.664Z,72.83
2018-06-21T23:54:58.329Z,72.80
2018-06-21T23:57:27.054Z,72.25
2018-06-21T23:59:55.740Z,72.42
